Mayer, AZ (86333)

4:57 AM MST on August 24, 2016 (GMT -0700)
Spring Valley off Hwy 69 | | Change Station

Elev 3980 ft 34.35 °N, 112.17 °W | Updated 4 seconds ago

Clear
Clear
64.2 °F
Feels Like 64.2 °F
N
4.9
Wind Variable Wind from NNW
Gusts 6.0 mph

Today
High -- | Low -- °F
--% Chance of Precip.
Yesterday
High -- | Low -- °F
Precip. -- in
Pressure 30.04 in
Visibility 10.0 miles
Clouds Clear
Dew Point 55 °F
Humidity 72%
Rainfall 0.00 in
Snow Depth Not available.
5:56 AM 7:04 PM
Waning Gibbous, 58% visible
METAR KPRC 241153Z AUTO 00000KT 10SM CLR 14/12 A3024 RMK AO2 SLP172 70016 T01390122 10167 20133 55001
Pressure 30.04 in
Visibility 10.0 miles
Clouds Clear
Dew Point 55 °F
Humidity 72%
Rainfall 0.00 in
Snow Depth Not available.
5:56 AM 7:04 PM
Waning Gibbous, 58% visible
METAR KPRC 241153Z AUTO 00000KT 10SM CLR 14/12 A3024 RMK AO2 SLP172 70016 T01390122 10167 20133 55001

10-Day Weather Forecast

Almanac

Astronomy

Aug. 24, 2016 Rise Set
Actual Time
Civil Twilight
Nautical Twilight
Astronomical Twilight
Moon
Length of Visible Light
Length of Day
Tomorrow will be .
, % of the Moon is Illuminated

Today's Extremes

State Highs State Lows

Community

WunderPhotos

Upload Photos

1,934,571 photos uploaded!

WunderBlog® & News

Nearby

Air Quality

  Air Quality AQ Index Pollutant
Not available.

Snow Depth

Station Depth Elevation

Earthquake Activity

City Distance Mag. Time & Date
Minimum magnitude displayed is 2.5.

Coastal Water Temperatures

Place Temperature

Stations

Nearby Weather Stations

Station Location Temp. Windchill Dew Point Humidity Wind Precip. Elev Updated Type
                   

Watches & Warnings

There are currently no watches in effect.